Terminal Aerodrome Forecast
Issued by NWS

Home | Current Version | Previous Version | Text Only | Print | Product List | Glossary On
Versions: 1 2 3 4 5 6 7 8 9 10 11 12 13 14 15 16 17 18
000
FTUS43 KDTX 191140
TAFDET
TAF
KDET 191140Z 1912/2012 15005KT P6SM BKN025 OVC035 WS020/25040KT
     FM191500 16005KT 6SM -SHRA BR SCT008 OVC015
     FM191800 17006KT 3/4SM -RA BR OVC004
     FM192200 19012KT 2SM -SHRA BR OVC006
     FM201000 20013KT 4SM -SHRA BR OVC012=

USA.gov is the U.S. government's official web portal to all federal, state and local government web resources and services.